Terminal Aerodrome Forecast
Issued by NWS

Home | Current Version | Previous Version | Text Only | Print | Product List | Glossary On
Versions: 1 2 3 4 5 6 7 8 9 10 11 12 13 14 15 16 17 18 19 20 21 22 23 24
000
FTUS43 KGLD 240500 RRA
TAFMCK
TAF
KMCK 240546Z 2406/2506 11007KT P6SM SKC
     FM241000 13008KT P6SM FEW007
     FM241300 15012KT P6SM FEW250
     FM241700 19016G28KT P6SM SCT200
     FM250100 18011KT P6SM SCT080 OVC150=

USA.gov is the U.S. government's official web portal to all federal, state and local government web resources and services.